sensor_id;sensor_type;location;lat;lon;timestamp;pressure;altitude;pressure_sealevel;temperature;humidity
76732;BME280;65656;51.130;13.658;2023-06-01T00:01:47;99597.38;;;11.96;75.60
76732;BME280;65656;51.130;13.658;2023-06-01T00:05:50;99599.66;;;11.82;76.43
76732;BME280;65656;51.130;13.658;2023-06-01T00:09:51;99600.88;;;11.75;76.84
76732;BME280;65656;51.130;13.658;2023-06-01T00:13:53;99608.94;;;11.42;82.70
76732;BME280;65656;51.130;13.658;2023-06-01T00:17:55;99596.50;;;11.18;83.06
76732;BME280;65656;51.130;13.658;2023-06-01T00:21:58;99604.47;;;11.03;84.15
76732;BME280;65656;51.130;13.658;2023-06-01T00:26:00;99599.50;;;11.00;84.26
76732;BME280;65656;51.130;13.658;2023-06-01T00:30:02;99594.56;;;10.85;87.07
76732;BME280;65656;51.130;13.658;2023-06-01T00:34:03;99585.00;;;10.71;86.89
76732;BME280;65656;51.130;13.658;2023-06-01T00:38:06;99591.28;;;10.54;89.02
76732;BME280;65656;51.130;13.658;2023-06-01T00:42:08;99588.75;;;10.36;90.00
76732;BME280;65656;51.130;13.658;2023-06-01T00:46:10;99585.06;;;10.30;90.56
76732;BME280;65656;51.130;13.658;2023-06-01T00:50:12;99585.31;;;10.17;92.29
76732;BME280;65656;51.130;13.658;2023-06-01T00:54:15;99593.34;;;9.95;93.03
76732;BME280;65656;51.130;13.658;2023-06-01T00:58:17;99594.81;;;9.86;95.08
76732;BME280;65656;51.130;13.658;2023-06-01T01:02:19;99584.81;;;9.80;95.88
76732;BME280;65656;51.130;13.658;2023-06-01T01:06:26;99574.38;;;9.89;97.47
76732;BME280;65656;51.130;13.658;2023-06-01T01:10:33;99584.69;;;9.87;97.04
76732;BME280;65656;51.130;13.658;2023-06-01T01:14:40;99591.63;;;9.89;96.95
76732;BME280;65656;51.130;13.658;2023-06-01T01:18:50;99588.31;;;9.75;97.89
76732;BME280;65656;51.130;13.658;2023-06-01T01:23:06;99585.81;;;9.62;99.19
76732;BME280;65656;51.130;13.658;2023-06-01T01:27:23;99589.66;;;9.49;98.66
76732;BME280;65656;51.130;13.658;2023-06-01T01:31:26;99594.03;;;9.39;100.00
76732;BME280;65656;51.130;13.658;2023-06-01T01:35:30;99591.53;;;9.37;100.00
76732;BME280;65656;51.130;13.658;2023-06-01T01:39:33;99586.56;;;9.34;100.00
76732;BME280;65656;51.130;13.658;2023-06-01T01:43:35;99583.69;;;9.29;100.00
76732;BME280;65656;51.130;13.658;2023-06-01T01:47:44;99582.88;;;9.29;100.00
76732;BME280;65656;51.130;13.658;2023-06-01T01:51:50;99576.28;;;9.65;100.00
76732;BME280;65656;51.130;13.658;2023-06-01T01:55:53;99576.47;;;9.98;100.00
76732;BME280;65656;51.130;13.658;2023-06-01T01:59:57;99573.75;;;10.27;99.90
76732;BME280;65656;51.130;13.658;2023-06-01T02:04:02;99567.53;;;10.43;99.64
76732;BME280;65656;51.130;13.658;2023-06-01T02:08:04;99561.84;;;10.33;100.00
76732;BME280;65656;51.130;13.658;2023-06-01T02:12:06;99564.00;;;10.31;100.00
76732;BME280;65656;51.130;13.658;2023-06-01T02:16:08;99553.44;;;10.23;100.00
76732;BME280;65656;51.130;13.658;2023-06-01T02:20:11;99563.31;;;10.24;100.00
76732;BME280;65656;51.130;13.658;2023-06-01T02:24:13;99553.22;;;10.41;99.54
76732;BME280;65656;51.130;13.658;2023-06-01T02:28:14;99550.09;;;10.49;98.78
76732;BME280;65656;51.130;13.658;2023-06-01T02:32:16;99557.91;;;10.57;98.00
76732;BME280;65656;51.130;13.658;2023-06-01T02:36:19;99550.50;;;10.58;98.41
76732;BME280;65656;51.130;13.658;2023-06-01T02:40:20;99553.75;;;10.55;99.39
76732;BME280;65656;51.130;13.658;2023-06-01T02:44:22;99551.09;;;10.43;100.00
76732;BME280;65656;51.130;13.658;2023-06-01T02:48:23;99550.63;;;10.06;100.00
76732;BME280;65656;51.130;13.658;2023-06-01T02:52:26;99559.16;;;9.81;100.00
76732;BME280;65656;51.130;13.658;2023-06-01T02:56:28;99546.19;;;9.76;100.00
76732;BME280;65656;51.130;13.658;2023-06-01T03:00:29;99540.72;;;9.76;100.00
76732;BME280;65656;51.130;13.658;2023-06-01T03:04:31;99540.63;;;9.60;100.00
76732;BME280;65656;51.130;13.658;2023-06-01T03:08:34;99529.34;;;9.44;100.00
76732;BME280;65656;51.130;13.658;2023-06-01T03:12:35;99529.22;;;9.39;100.00
76732;BME280;65656;51.130;13.658;2023-06-01T03:16:37;99518.03;;;9.53;100.00
76732;BME280;65656;51.130;13.658;2023-06-01T03:20:39;99525.06;;;9.60;100.00
76732;BME280;65656;51.130;13.658;2023-06-01T03:24:42;99526.94;;;9.60;100.00
76732;BME280;65656;51.130;13.658;2023-06-01T03:28:43;99536.13;;;9.54;100.00
76732;BME280;65656;51.130;13.658;2023-06-01T03:32:45;99537.78;;;9.55;100.00
76732;BME280;65656;51.130;13.658;2023-06-01T03:36:46;99534.19;;;9.66;100.00
76732;BME280;65656;51.130;13.658;2023-06-01T03:40:49;99535.44;;;9.87;100.00
76732;BME280;65656;51.130;13.658;2023-06-01T03:44:51;99533.13;;;10.07;99.77
76732;BME280;65656;51.130;13.658;2023-06-01T03:48:52;99524.97;;;10.24;96.34
76732;BME280;65656;51.130;13.658;2023-06-01T03:52:54;99525.34;;;10.44;95.13
76732;BME280;65656;51.130;13.658;2023-06-01T03:56:57;99525.28;;;10.56;93.11
76732;BME280;65656;51.130;13.658;2023-06-01T04:00:58;99522.13;;;10.64;92.97
76732;BME280;65656;51.130;13.658;2023-06-01T04:05:00;99519.47;;;10.69;92.64
76732;BME280;65656;51.130;13.658;2023-06-01T04:09:02;99527.59;;;10.81;91.88
76732;BME280;65656;51.130;13.658;2023-06-01T04:13:05;99534.84;;;10.87;91.99
76732;BME280;65656;51.130;13.658;2023-06-01T04:17:07;99543.25;;;10.97;89.79
76732;BME280;65656;51.130;13.658;2023-06-01T04:21:08;99538.50;;;11.09;90.79
76732;BME280;65656;51.130;13.658;2023-06-01T04:25:11;99539.47;;;11.20;90.12
76732;BME280;65656;51.130;13.658;2023-06-01T04:29:14;99542.38;;;11.30;88.90
76732;BME280;65656;51.130;13.658;2023-06-01T04:33:16;99540.16;;;11.49;87.69
76732;BME280;65656;51.130;13.658;2023-06-01T04:37:17;99537.38;;;11.66;86.12
76732;BME280;65656;51.130;13.658;2023-06-01T04:41:19;99536.31;;;11.89;86.20
76732;BME280;65656;51.130;13.658;2023-06-01T04:45:23;99542.59;;;12.06;84.53
76732;BME280;65656;51.130;13.658;2023-06-01T04:49:25;99538.88;;;12.17;84.25
76732;BME280;65656;51.130;13.658;2023-06-01T04:53:26;99536.28;;;12.33;83.94
76732;BME280;65656;51.130;13.658;2023-06-01T04:57:28;99532.03;;;12.47;84.09
76732;BME280;65656;51.130;13.658;2023-06-01T05:01:31;99533.88;;;12.68;82.98
76732;BME280;65656;51.130;13.658;2023-06-01T05:05:32;99539.69;;;12.72;82.84
76732;BME280;65656;51.130;13.658;2023-06-01T05:09:34;99526.38;;;12.91;82.01
76732;BME280;65656;51.130;13.658;2023-06-01T05:13:36;99528.19;;;13.12;81.72
76732;BME280;65656;51.130;13.658;2023-06-01T05:17:39;99533.47;;;13.19;80.44
76732;BME280;65656;51.130;13.658;2023-06-01T05:21:41;99533.34;;;13.35;80.27
76732;BME280;65656;51.130;13.658;2023-06-01T05:25:43;99540.06;;;13.60;78.44
76732;BME280;65656;51.130;13.658;2023-06-01T05:29:44;99542.63;;;13.72;79.78
76732;BME280;65656;51.130;13.658;2023-06-01T05:33:47;99547.31;;;13.76;77.26
76732;BME280;65656;51.130;13.658;2023-06-01T05:37:49;99526.94;;;13.72;78.42
76732;BME280;65656;51.130;13.658;2023-06-01T05:41:50;99532.78;;;13.86;78.44
76732;BME280;65656;51.130;13.658;2023-06-01T05:45:52;99547.94;;;13.88;77.22
76732;BME280;65656;51.130;13.658;2023-06-01T05:49:55;99544.06;;;13.84;78.06
76732;BME280;65656;51.130;13.658;2023-06-01T05:53:56;99539.72;;;13.93;77.65
76732;BME280;65656;51.130;13.658;2023-06-01T05:57:58;99534.50;;;14.07;78.39
76732;BME280;65656;51.130;13.658;2023-06-01T06:02:00;99544.75;;;14.17;77.60
76732;BME280;65656;51.130;13.658;2023-06-01T06:06:03;99527.94;;;14.23;77.70
76732;BME280;65656;51.130;13.658;2023-06-01T06:10:06;99532.09;;;14.31;77.29
76732;BME280;65656;51.130;13.658;2023-06-01T06:14:07;99521.16;;;14.57;77.79
76732;BME280;65656;51.130;13.658;2023-06-01T06:18:09;99524.47;;;14.59;76.64
76732;BME280;65656;51.130;13.658;2023-06-01T06:22:12;99522.56;;;14.74;77.38
76732;BME280;65656;51.130;13.658;2023-06-01T06:26:13;99520.06;;;14.78;77.50
76732;BME280;65656;51.130;13.658;2023-06-01T06:30:15;99525.03;;;14.96;77.39
76732;BME280;65656;51.130;13.658;2023-06-01T06:34:17;99526.69;;;15.18;76.31
76732;BME280;65656;51.130;13.658;2023-06-01T06:38:20;99522.81;;;14.98;76.01
76732;BME280;65656;51.130;13.658;2023-06-01T06:42:23;99524.47;;;14.99;76.33
76732;BME280;65656;51.130;13.658;2023-06-01T06:46:24;99521.69;;;15.10;76.68
76732;BME280;65656;51.130;13.658;2023-06-01T06:50:27;99522.78;;;15.24;76.53
76732;BME280;65656;51.130;13.658;2023-06-01T06:54:30;99520.59;;;15.41;76.11
76732;BME280;65656;51.130;13.658;2023-06-01T06:58:32;99517.25;;;15.49;75.76
76732;BME280;65656;51.130;13.658;2023-06-01T07:02:34;99523.31;;;15.62;76.34
76732;BME280;65656;51.130;13.658;2023-06-01T07:06:35;99516.09;;;15.55;75.54
76732;BME280;65656;51.130;13.658;2023-06-01T07:10:38;99518.84;;;15.71;75.61
76732;BME280;65656;51.130;13.658;2023-06-01T07:14:40;99515.44;;;15.99;75.25
76732;BME280;65656;51.130;13.658;2023-06-01T07:18:41;99514.81;;;16.12;74.71
76732;BME280;65656;51.130;13.658;2023-06-01T07:22:43;99510.47;;;15.96;75.34
76732;BME280;65656;51.130;13.658;2023-06-01T07:26:46;99507.00;;;16.25;76.22
76732;BME280;65656;51.130;13.658;2023-06-01T07:30:47;99507.59;;;16.22;74.72
76732;BME280;65656;51.130;13.658;2023-06-01T07:34:49;99505.22;;;16.44;73.90
76732;BME280;65656;51.130;13.658;2023-06-01T07:38:50;99496.94;;;16.44;74.26
76732;BME280;65656;51.130;13.658;2023-06-01T07:42:53;99503.59;;;16.43;72.98
76732;BME280;65656;51.130;13.658;2023-06-01T07:46:55;99490.53;;;16.49;74.55
76732;BME280;65656;51.130;13.658;2023-06-01T07:50:56;99505.19;;;16.88;73.09
76732;BME280;65656;51.130;13.658;2023-06-01T07:54:58;99489.28;;;17.04;70.66
76732;BME280;65656;51.130;13.658;2023-06-01T07:59:01;99491.75;;;17.35;71.33
76732;BME280;65656;51.130;13.658;2023-06-01T08:03:03;99491.88;;;17.48;68.67
76732;BME280;65656;51.130;13.658;2023-06-01T08:07:05;99497.25;;;17.40;68.08
76732;BME280;65656;51.130;13.658;2023-06-01T08:11:07;99500.13;;;17.30;67.83
76732;BME280;65656;51.130;13.658;2023-06-01T08:15:10;99485.81;;;17.46;67.37
76732;BME280;65656;51.130;13.658;2023-06-01T08:19:12;99480.25;;;17.75;68.13
76732;BME280;65656;51.130;13.658;2023-06-01T08:23:13;99479.50;;;17.89;65.83
76732;BME280;65656;51.130;13.658;2023-06-01T08:27:16;99478.72;;;18.07;66.29
76732;BME280;65656;51.130;13.658;2023-06-01T08:31:20;99478.78;;;18.21;65.28
76732;BME280;65656;51.130;13.658;2023-06-01T08:35:22;99469.53;;;18.30;62.75
76732;BME280;65656;51.130;13.658;2023-06-01T08:39:24;99463.59;;;18.56;59.40
76732;BME280;65656;51.130;13.658;2023-06-01T08:43:27;99466.97;;;18.53;57.88
76732;BME280;65656;51.130;13.658;2023-06-01T08:47:35;99465.75;;;18.59;54.17
76732;BME280;65656;51.130;13.658;2023-06-01T08:51:37;99456.38;;;18.74;54.10
76732;BME280;65656;51.130;13.658;2023-06-01T08:55:40;99456.56;;;18.45;53.95
76732;BME280;65656;51.130;13.658;2023-06-01T08:59:42;99463.06;;;18.54;55.57
76732;BME280;65656;51.130;13.658;2023-06-01T09:03:45;99457.59;;;18.68;54.18
76732;BME280;65656;51.130;13.658;2023-06-01T09:07:48;99444.53;;;19.01;55.33
76732;BME280;65656;51.130;13.658;2023-06-01T09:12:18;99436.53;;;19.13;55.21
76732;BME280;65656;51.130;13.658;2023-06-01T09:16:19;99447.97;;;19.25;53.67
76732;BME280;65656;51.130;13.658;2023-06-01T09:20:27;99441.38;;;19.21;54.77
76732;BME280;65656;51.130;13.658;2023-06-01T09:24:29;99441.59;;;19.52;53.78
76732;BME280;65656;51.130;13.658;2023-06-01T09:28:30;99436.56;;;19.68;53.62
76732;BME280;65656;51.130;13.658;2023-06-01T09:33:06;99430.59;;;19.88;54.13
76732;BME280;65656;51.130;13.658;2023-06-01T09:37:09;99440.88;;;20.01;53.73
76732;BME280;65656;51.130;13.658;2023-06-01T09:41:11;99437.81;;;19.75;53.30
76732;BME280;65656;51.130;13.658;2023-06-01T09:45:18;99442.28;;;20.13;52.49
76732;BME280;65656;51.130;13.658;2023-06-01T09:49:21;99439.38;;;20.31;53.37
76732;BME280;65656;51.130;13.658;2023-06-01T09:53:24;99444.97;;;20.18;52.81
76732;BME280;65656;51.130;13.658;2023-06-01T09:57:27;99432.38;;;20.20;49.61
76732;BME280;65656;51.130;13.658;2023-06-01T10:01:29;99428.19;;;20.45;50.99
76732;BME280;65656;51.130;13.658;2023-06-01T10:05:33;99427.16;;;20.41;50.99
76732;BME280;65656;51.130;13.658;2023-06-01T10:09:37;99423.66;;;20.49;51.40
76732;BME280;65656;51.130;13.658;2023-06-01T10:13:40;99428.13;;;20.59;52.10
76732;BME280;65656;51.130;13.658;2023-06-01T10:17:42;99417.72;;;20.65;51.03
76732;BME280;65656;51.130;13.658;2023-06-01T10:21:44;99425.19;;;20.78;50.03
76732;BME280;65656;51.130;13.658;2023-06-01T10:25:49;99417.81;;;20.82;49.53
76732;BME280;65656;51.130;13.658;2023-06-01T10:29:53;99416.13;;;20.72;48.70
76732;BME280;65656;51.130;13.658;2023-06-01T10:33:55;99415.50;;;21.06;49.31
76732;BME280;65656;51.130;13.658;2023-06-01T10:38:24;99411.69;;;20.94;48.06
76732;BME280;65656;51.130;13.658;2023-06-01T10:42:39;99410.81;;;20.93;47.75
76732;BME280;65656;51.130;13.658;2023-06-01T10:46:42;99398.78;;;21.06;47.25
76732;BME280;65656;51.130;13.658;2023-06-01T10:51:17;99400.53;;;21.25;46.52
76732;BME280;65656;51.130;13.658;2023-06-01T10:55:26;99395.97;;;21.29;44.68
76732;BME280;65656;51.130;13.658;2023-06-01T10:59:28;99401.75;;;21.32;43.42
76732;BME280;65656;51.130;13.658;2023-06-01T11:03:42;99391.56;;;21.05;44.00
76732;BME280;65656;51.130;13.658;2023-06-01T11:07:45;99386.22;;;21.49;45.03
76732;BME280;65656;51.130;13.658;2023-06-01T11:12:00;99386.28;;;21.75;45.31
76732;BME280;65656;51.130;13.658;2023-06-01T11:16:32;99377.09;;;21.83;44.76
76732;BME280;65656;51.130;13.658;2023-06-01T11:20:38;99368.38;;;21.67;44.40
76732;BME280;65656;51.130;13.658;2023-06-01T11:24:43;99366.97;;;21.95;44.97
76732;BME280;65656;51.130;13.658;2023-06-01T11:28:48;99366.66;;;22.14;43.11
76732;BME280;65656;51.130;13.658;2023-06-01T11:32:51;99356.78;;;22.25;44.25
76732;BME280;65656;51.130;13.658;2023-06-01T11:36:53;99353.16;;;21.82;44.10
76732;BME280;65656;51.130;13.658;2023-06-01T11:40:59;99349.41;;;22.04;44.32
76732;BME280;65656;51.130;13.658;2023-06-01T11:45:01;99339.72;;;22.36;43.01
76732;BME280;65656;51.130;13.658;2023-06-01T11:49:05;99348.94;;;22.10;40.60
76732;BME280;65656;51.130;13.658;2023-06-01T11:53:07;99337.09;;;22.31;38.70
76732;BME280;65656;51.130;13.658;2023-06-01T11:57:10;99338.41;;;22.42;39.73
76732;BME280;65656;51.130;13.658;2023-06-01T12:01:12;99340.00;;;22.60;35.66
76732;BME280;65656;51.130;13.658;2023-06-01T12:05:13;99325.88;;;22.65;36.72
76732;BME280;65656;51.130;13.658;2023-06-01T12:09:15;99325.25;;;22.51;37.01
76732;BME280;65656;51.130;13.658;2023-06-01T12:13:19;99323.03;;;22.83;35.70
76732;BME280;65656;51.130;13.658;2023-06-01T12:17:21;99324.94;;;23.38;35.09
76732;BME280;65656;51.130;13.658;2023-06-01T12:21:23;99325.84;;;24.01;33.66
76732;BME280;65656;51.130;13.658;2023-06-01T12:25:24;99314.63;;;23.59;35.71
76732;BME280;65656;51.130;13.658;2023-06-01T12:29:38;99324.50;;;23.86;34.72
76732;BME280;65656;51.130;13.658;2023-06-01T12:33:40;99303.88;;;24.32;35.78
76732;BME280;65656;51.130;13.658;2023-06-01T12:37:42;99311.50;;;24.23;36.12
76732;BME280;65656;51.130;13.658;2023-06-01T12:41:47;99302.41;;;25.53;34.16
76732;BME280;65656;51.130;13.658;2023-06-01T12:45:50;99299.97;;;26.04;34.10
76732;BME280;65656;51.130;13.658;2023-06-01T12:50:01;99300.00;;;26.92;33.07
76732;BME280;65656;51.130;13.658;2023-06-01T12:54:03;99299.06;;;27.16;32.24
76732;BME280;65656;51.130;13.658;2023-06-01T12:58:05;99298.19;;;26.84;32.92
76732;BME280;65656;51.130;13.658;2023-06-01T13:02:08;99302.91;;;27.43;33.02
76732;BME280;65656;51.130;13.658;2023-06-01T13:06:10;99294.47;;;28.33;30.68
76732;BME280;65656;51.130;13.658;2023-06-01T13:10:11;99298.09;;;27.43;32.41
76732;BME280;65656;51.130;13.658;2023-06-01T13:14:13;99285.50;;;26.30;32.36
76732;BME280;65656;51.130;13.658;2023-06-01T13:18:16;99296.28;;;28.41;27.40
76732;BME280;65656;51.130;13.658;2023-06-01T13:22:17;99287.84;;;28.86;27.45
76732;BME280;65656;51.130;13.658;2023-06-01T13:26:19;99287.19;;;29.16;27.78
76732;BME280;65656;51.130;13.658;2023-06-01T13:30:21;99283.84;;;29.10;27.10
76732;BME280;65656;51.130;13.658;2023-06-01T13:34:24;99287.19;;;28.12;28.90
76732;BME280;65656;51.130;13.658;2023-06-01T13:38:25;99274.50;;;29.29;28.86
76732;BME280;65656;51.130;13.658;2023-06-01T13:42:27;99270.56;;;29.90;25.51
76732;BME280;65656;51.130;13.658;2023-06-01T13:46:28;99277.50;;;29.66;27.41
76732;BME280;65656;51.130;13.658;2023-06-01T13:50:31;99277.53;;;29.70;26.67
76732;BME280;65656;51.130;13.658;2023-06-01T13:54:33;99266.41;;;29.28;28.45
76732;BME280;65656;51.130;13.658;2023-06-01T13:58:34;99267.59;;;30.77;23.99
76732;BME280;65656;51.130;13.658;2023-06-01T14:02:36;99262.56;;;29.39;25.39
76732;BME280;65656;51.130;13.658;2023-06-01T14:06:39;99262.31;;;30.38;23.29
76732;BME280;65656;51.130;13.658;2023-06-01T14:10:41;99257.28;;;29.64;24.66
76732;BME280;65656;51.130;13.658;2023-06-01T14:14:42;99257.03;;;30.74;20.81
76732;BME280;65656;51.130;13.658;2023-06-01T14:18:44;99253.38;;;29.73;22.28
76732;BME280;65656;51.130;13.658;2023-06-01T14:22:47;99245.91;;;30.95;22.14
76732;BME280;65656;51.130;13.658;2023-06-01T14:26:48;99240.53;;;30.42;20.46
76732;BME280;65656;51.130;13.658;2023-06-01T14:30:50;99236.06;;;29.48;19.96
76732;BME280;65656;51.130;13.658;2023-06-01T14:34:51;99241.28;;;30.36;19.64
76732;BME280;65656;51.130;13.658;2023-06-01T14:38:54;99228.44;;;29.22;20.46
76732;BME280;65656;51.130;13.658;2023-06-01T14:42:56;99228.28;;;29.11;20.03
76732;BME280;65656;51.130;13.658;2023-06-01T14:46:57;99231.84;;;29.61;20.40
76732;BME280;65656;51.130;13.658;2023-06-01T14:51:01;99231.00;;;30.58;19.78
76732;BME280;65656;51.130;13.658;2023-06-01T14:55:05;99224.66;;;29.97;20.78
76732;BME280;65656;51.130;13.658;2023-06-01T14:59:07;99221.72;;;31.01;20.95
76732;BME280;65656;51.130;13.658;2023-06-01T15:03:08;99224.94;;;31.00;20.75
76732;BME280;65656;51.130;13.658;2023-06-01T15:07:10;99212.94;;;31.14;20.66
76732;BME280;65656;51.130;13.658;2023-06-01T15:11:13;99215.44;;;30.04;23.43
76732;BME280;65656;51.130;13.658;2023-06-01T15:15:16;99216.84;;;29.57;22.43
76732;BME280;65656;51.130;13.658;2023-06-01T15:19:17;99204.81;;;29.07;24.29
76732;BME280;65656;51.130;13.658;2023-06-01T15:23:19;99186.25;;;30.26;23.30
76732;BME280;65656;51.130;13.658;2023-06-01T15:27:22;99190.81;;;30.75;22.39
76732;BME280;65656;51.130;13.658;2023-06-01T15:31:24;99195.66;;;30.78;21.92
76732;BME280;65656;51.130;13.658;2023-06-01T15:35:25;99185.19;;;29.71;24.46
76732;BME280;65656;51.130;13.658;2023-06-01T15:39:29;99190.91;;;30.48;24.70
76732;BME280;65656;51.130;13.658;2023-06-01T15:43:33;99178.09;;;29.54;23.57
76732;BME280;65656;51.130;13.658;2023-06-01T15:47:35;99184.22;;;29.33;25.31
76732;BME280;65656;51.130;13.658;2023-06-01T15:51:37;99188.06;;;29.74;25.47
76732;BME280;65656;51.130;13.658;2023-06-01T15:55:38;99172.75;;;29.19;25.28
76732;BME280;65656;51.130;13.658;2023-06-01T15:59:41;99177.66;;;28.95;25.37
76732;BME280;65656;51.130;13.658;2023-06-01T16:03:43;99176.19;;;29.05;26.09
76732;BME280;65656;51.130;13.658;2023-06-01T16:07:45;99171.22;;;29.81;25.25
76732;BME280;65656;51.130;13.658;2023-06-01T16:11:46;99172.81;;;28.08;26.90
76732;BME280;65656;51.130;13.658;2023-06-01T16:15:49;99169.34;;;28.14;26.89
76732;BME280;65656;51.130;13.658;2023-06-01T16:19:52;99166.53;;;27.37;27.34
76732;BME280;65656;51.130;13.658;2023-06-01T16:23:54;99168.66;;;27.79;26.03
76732;BME280;65656;51.130;13.658;2023-06-01T16:27:55;99171.19;;;28.26;26.61
76732;BME280;65656;51.130;13.658;2023-06-01T16:31:59;99159.28;;;27.55;27.27
76732;BME280;65656;51.130;13.658;2023-06-01T16:36:01;99159.59;;;26.99;28.34
76732;BME280;65656;51.130;13.658;2023-06-01T16:40:03;99157.66;;;26.52;28.75
76732;BME280;65656;51.130;13.658;2023-06-01T16:44:05;99154.25;;;25.99;29.43
76732;BME280;65656;51.130;13.658;2023-06-01T16:48:08;99141.78;;;25.56;30.75
76732;BME280;65656;51.130;13.658;2023-06-01T16:52:10;99147.25;;;25.37;29.97
76732;BME280;65656;51.130;13.658;2023-06-01T16:56:11;99150.91;;;23.82;32.09
76732;BME280;65656;51.130;13.658;2023-06-01T17:00:14;99143.53;;;23.78;32.40
76732;BME280;65656;51.130;13.658;2023-06-01T17:04:17;99144.34;;;23.78;31.00
76732;BME280;65656;51.130;13.658;2023-06-01T17:08:18;99133.66;;;23.93;31.74
76732;BME280;65656;51.130;13.658;2023-06-01T17:12:20;99138.84;;;24.15;32.89
76732;BME280;65656;51.130;13.658;2023-06-01T17:16:21;99141.16;;;23.47;33.44
76732;BME280;65656;51.130;13.658;2023-06-01T17:20:24;99137.63;;;23.38;34.01
76732;BME280;65656;51.130;13.658;2023-06-01T17:24:26;99137.97;;;22.56;35.39
76732;BME280;65656;51.130;13.658;2023-06-01T17:28:28;99137.09;;;22.73;35.58
76732;BME280;65656;51.130;13.658;2023-06-01T17:32:29;99144.56;;;23.31;34.83
76732;BME280;65656;51.130;13.658;2023-06-01T17:36:32;99144.66;;;22.64;36.13
76732;BME280;65656;51.130;13.658;2023-06-01T17:40:34;99138.78;;;21.46;39.41
76732;BME280;65656;51.130;13.658;2023-06-01T17:44:35;99143.31;;;20.98;40.61
76732;BME280;65656;51.130;13.658;2023-06-01T17:48:37;99137.13;;;20.44;42.71
76732;BME280;65656;51.130;13.658;2023-06-01T17:52:40;99141.31;;;20.33;43.68
76732;BME280;65656;51.130;13.658;2023-06-01T17:56:42;99136.16;;;20.09;44.64
76732;BME280;65656;51.130;13.658;2023-06-01T18:00:43;99149.06;;;19.83;45.42
76732;BME280;65656;51.130;13.658;2023-06-01T18:04:45;99152.44;;;19.71;46.18
76732;BME280;65656;51.130;13.658;2023-06-01T18:08:51;99152.59;;;19.52;46.90
76732;BME280;65656;51.130;13.658;2023-06-01T18:12:52;99136.88;;;19.47;47.18
76732;BME280;65656;51.130;13.658;2023-06-01T18:16:54;99144.44;;;19.33;48.08
76732;BME280;65656;51.130;13.658;2023-06-01T18:20:55;99147.09;;;19.16;49.11
76732;BME280;65656;51.130;13.658;2023-06-01T18:24:58;99150.09;;;19.06;49.63
76732;BME280;65656;51.130;13.658;2023-06-01T18:29:00;99148.28;;;18.87;50.28
76732;BME280;65656;51.130;13.658;2023-06-01T18:33:02;99145.22;;;18.75;51.02
76732;BME280;65656;51.130;13.658;2023-06-01T18:37:04;99156.00;;;18.63;51.64
76732;BME280;65656;51.130;13.658;2023-06-01T18:41:07;99157.94;;;18.49;52.21
76732;BME280;65656;51.130;13.658;2023-06-01T18:45:09;99168.34;;;18.29;53.17
76732;BME280;65656;51.130;13.658;2023-06-01T18:49:11;99168.09;;;18.12;53.39
76732;BME280;65656;51.130;13.658;2023-06-01T18:53:13;99168.50;;;17.92;54.28
76732;BME280;65656;51.130;13.658;2023-06-01T18:57:16;99170.81;;;17.85;54.72
76732;BME280;65656;51.130;13.658;2023-06-01T19:01:17;99164.94;;;17.72;55.16
76732;BME280;65656;51.130;13.658;2023-06-01T19:05:22;99167.47;;;17.50;56.33
76732;BME280;65656;51.130;13.658;2023-06-01T19:09:24;99174.56;;;17.23;57.38
76732;BME280;65656;51.130;13.658;2023-06-01T19:13:33;99177.84;;;17.07;58.01
76732;BME280;65656;51.130;13.658;2023-06-01T19:17:35;99184.44;;;16.92;58.36
76732;BME280;65656;51.130;13.658;2023-06-01T19:21:37;99181.25;;;16.80;59.05
76732;BME280;65656;51.130;13.658;2023-06-01T19:25:38;99187.56;;;16.61;59.83
76732;BME280;65656;51.130;13.658;2023-06-01T19:29:41;99192.66;;;16.49;60.52
76732;BME280;65656;51.130;13.658;2023-06-01T19:33:43;99192.84;;;16.34;61.48
76732;BME280;65656;51.130;13.658;2023-06-01T19:37:45;99196.31;;;16.21;62.19
76732;BME280;65656;51.130;13.658;2023-06-01T19:41:47;99190.66;;;16.07;63.07
76732;BME280;65656;51.130;13.658;2023-06-01T19:45:50;99198.09;;;16.11;63.22
76732;BME280;65656;51.130;13.658;2023-06-01T19:49:51;99201.56;;;15.93;63.91
76732;BME280;65656;51.130;13.658;2023-06-01T19:53:53;99202.63;;;15.97;63.56
76732;BME280;65656;51.130;13.658;2023-06-01T19:57:54;99208.72;;;15.94;63.78
76732;BME280;65656;51.130;13.658;2023-06-01T20:02:00;99212.38;;;15.90;64.13
76732;BME280;65656;51.130;13.658;2023-06-01T20:06:03;99208.81;;;15.84;64.33
76732;BME280;65656;51.130;13.658;2023-06-01T20:10:14;99212.25;;;15.71;64.94
76732;BME280;65656;51.130;13.658;2023-06-01T20:14:20;99220.59;;;15.60;65.28
76732;BME280;65656;51.130;13.658;2023-06-01T20:18:23;99226.44;;;15.54;65.45
76732;BME280;65656;51.130;13.658;2023-06-01T20:22:26;99222.56;;;15.55;65.83
76732;BME280;65656;51.130;13.658;2023-06-01T20:26:28;99224.59;;;15.44;66.54
76732;BME280;65656;51.130;13.658;2023-06-01T20:30:50;99230.19;;;15.29;67.79
76732;BME280;65656;51.130;13.658;2023-06-01T20:35:07;99235.78;;;15.19;68.96
76732;BME280;65656;51.130;13.658;2023-06-01T20:39:09;99236.66;;;15.09;69.68
76732;BME280;65656;51.130;13.658;2023-06-01T20:43:19;99229.31;;;14.94;70.96
76732;BME280;65656;51.130;13.658;2023-06-01T20:47:21;99237.06;;;14.87;71.97
76732;BME280;65656;51.130;13.658;2023-06-01T20:51:27;99241.53;;;14.73;73.55
76732;BME280;65656;51.130;13.658;2023-06-01T20:55:35;99240.44;;;14.69;74.00
76732;BME280;65656;51.130;13.658;2023-06-01T20:59:39;99244.06;;;14.54;76.48
76732;BME280;65656;51.130;13.658;2023-06-01T21:03:41;99242.69;;;14.41;77.25
76732;BME280;65656;51.130;13.658;2023-06-01T21:07:44;99252.66;;;14.27;78.73
76732;BME280;65656;51.130;13.658;2023-06-01T21:11:45;99251.00;;;14.16;79.38